Time;durP1;ratioP1;P1;durP2;ratioP2;P2;SDS_P1;SDS_P2;PMS_P1;PMS_P2;Temp;Humidity;BMP_temperature;BMP_pressure;BME280_temperature;BME280_humidity;BME280_pressure;Samples;Min_cycle;Max_cycle;Signal;HPM_P1;HPM_P2
2022/10/29 00:01:23;;;;;;;41.15;19.58;;;;;;;10.77;100.00;99688.91;5057315;28;20577;-62
2022/10/29 00:03:49;;;;;;;48.35;20.23;;;;;;;10.85;100.00;99713.69;5037620;28;20517;-62
2022/10/29 00:06:14;;;;;;;34.72;18.60;;;;;;;10.87;100.00;99705.94;5057164;28;20555;-63
2022/10/29 00:08:41;;;;;;;44.45;21.75;;;;;;;10.77;100.00;99687.19;5056929;28;20687;-63
2022/10/29 00:11:13;;;;;;;38.38;20.15;;;;;;;10.91;100.00;99703.38;5055576;28;20072;-62
2022/10/29 00:13:40;;;;;;;39.47;20.38;;;;;;;10.95;100.00;99699.09;5057346;28;20037;-62
2022/10/29 00:16:21;;;;;;;45.58;21.02;;;;;;;10.94;100.00;99708.53;5058347;28;20045;-62
2022/10/29 00:18:47;;;;;;;37.38;19.08;;;;;;;10.89;100.00;99701.69;5059306;28;20039;-62
2022/10/29 00:21:19;;;;;;;29.20;16.80;;;;;;;10.93;100.00;99700.81;5059122;28;20072;-62
2022/10/29 00:23:45;;;;;;;30.77;16.33;;;;;;;10.80;100.00;99676.06;5058443;28;20043;-62
2022/10/29 00:26:12;;;;;;;37.85;18.63;;;;;;;10.88;100.00;99705.97;5045553;28;20128;-62
2022/10/29 00:28:37;;;;;;;40.10;17.70;;;;;;;10.83;100.00;99705.13;5056836;28;20110;-61
2022/10/29 00:31:09;;;;;;;29.98;18.08;;;;;;;10.75;100.00;99683.75;5059959;28;20045;-62
2022/10/29 00:33:34;;;;;;;35.88;19.77;;;;;;;10.83;100.00;99699.97;5034882;28;20058;-64
2022/10/29 00:36:06;;;;;;;32.45;17.58;;;;;;;10.81;100.00;99693.16;5058183;28;20052;-62
2022/10/29 00:38:33;;;;;;;36.00;18.15;;;;;;;10.87;100.00;99714.50;5058929;28;20039;-62
2022/10/29 00:41:03;;;;;;;33.95;18.45;;;;;;;10.92;100.00;99707.66;5059019;28;20040;-62
2022/10/29 00:43:32;;;;;;;34.38;17.35;;;;;;;10.87;100.00;99709.38;5058925;28;20037;-62
2022/10/29 00:46:01;;;;;;;30.35;17.35;;;;;;;10.93;100.00;99713.66;5057825;28;20029;-62
2022/10/29 00:48:32;;;;;;;29.42;16.17;;;;;;;10.90;100.00;99701.69;5057046;28;20032;-63
2022/10/29 00:51:02;;;;;;;36.38;17.77;;;;;;;10.90;100.00;99699.13;5057264;28;20071;-62
2022/10/29 00:53:32;;;;;;;33.35;17.40;;;;;;;10.92;100.00;99702.53;5058904;28;20036;-62
2022/10/29 00:55:58;;;;;;;28.15;15.65;;;;;;;10.79;100.00;99685.47;5041143;28;20111;-62
2022/10/29 00:58:24;;;;;;;36.60;19.25;;;;;;;10.78;100.00;99688.03;5057598;28;20040;-62
2022/10/29 01:00:50;;;;;;;31.77;17.63;;;;;;;10.83;100.00;99697.41;5053999;28;20048;-62
2022/10/29 01:03:15;;;;;;;30.80;18.23;;;;;;;10.88;100.00;99693.13;5016800;28;20135;-62
2022/10/29 01:05:43;;;;;;;30.80;17.13;;;;;;;10.78;100.00;99672.63;5037558;28;20037;-62
2022/10/29 01:08:09;;;;;;;30.50;15.88;;;;;;;10.93;100.00;99688.00;5037878;28;20440;-62
2022/10/29 01:11:01;;;;;;;32.08;19.95;;;;;;;10.91;100.00;99690.56;5038682;28;20517;-62
2022/10/29 01:13:40;;;;;;;29.63;17.08;;;;;;;10.90;100.00;99695.72;5016896;28;20060;-63
2022/10/29 01:16:25;;;;;;;29.70;18.10;;;;;;;10.94;100.00;99699.97;5041750;28;20033;-63
2022/10/29 01:19:18;;;;;;;21.98;14.50;;;;;;;10.98;100.00;99688.84;5040622;28;20066;-63
2022/10/29 01:21:53;;;;;;;22.10;14.85;;;;;;;10.91;100.00;99670.03;5024909;28;20052;-63
2022/10/29 01:24:47;;;;;;;25.65;16.02;;;;;;;11.05;100.00;99687.09;5040638;28;20028;-63
2022/10/29 01:27:32;;;;;;;23.55;14.20;;;;;;;11.03;100.00;99686.25;5042515;28;20033;-63
2022/10/29 01:30:22;;;;;;;20.70;14.02;;;;;;;11.00;100.00;99687.97;5041328;28;20492;-65
2022/10/29 01:32:57;;;;;;;20.95;13.73;;;;;;;10.95;100.00;99681.13;5040486;28;20055;-62
2022/10/29 01:35:45;;;;;;;21.20;14.23;;;;;;;10.88;100.00;99680.31;5040506;28;20109;-61
2022/10/29 01:38:20;;;;;;;20.23;14.27;;;;;;;10.92;100.00;99676.00;5041292;28;20037;-61
2022/10/29 01:40:49;;;;;;;22.27;13.52;;;;;;;10.84;100.00;99658.09;5041545;28;20056;-61
2022/10/29 01:43:21;;;;;;;20.55;13.38;;;;;;;10.93;100.00;99670.03;5024165;28;20456;-62
2022/10/29 01:45:58;;;;;;;22.70;13.68;;;;;;;10.78;100.00;99650.41;5041641;28;20044;-61
2022/10/29 01:48:39;;;;;;;19.75;12.32;;;;;;;10.74;100.00;99652.97;5041464;28;20041;-62
2022/10/29 01:51:15;;;;;;;16.73;11.90;;;;;;;10.72;100.00;99650.44;5042026;28;20033;-65
2022/10/29 01:53:41;;;;;;;19.98;11.30;;;;;;;10.67;100.00;99652.16;5043326;28;20468;-61
2022/10/29 01:56:07;;;;;;;17.08;10.90;;;;;;;10.77;100.00;99668.38;5041345;28;20048;-61
2022/10/29 01:58:35;;;;;;;22.90;13.10;;;;;;;10.75;100.00;99668.38;5022477;28;20386;-62
2022/10/29 02:01:21;;;;;;;20.15;12.57;;;;;;;10.72;100.00;99667.53;5042639;28;20060;-62
2022/10/29 02:03:50;;;;;;;18.63;12.57;;;;;;;10.71;100.00;99670.94;5059773;28;20036;-60
2022/10/29 02:06:36;;;;;;;16.95;12.02;;;;;;;10.79;100.00;99670.06;5061594;28;20044;-62
2022/10/29 02:09:22;;;;;;;17.73;12.10;;;;;;;10.82;100.00;99671.78;5061889;28;20748;-61
2022/10/29 02:12:00;;;;;;;15.27;11.25;;;;;;;10.84;100.00;99664.94;5061909;28;20044;-63
2022/10/29 02:14:35;;;;;;;20.48;11.23;;;;;;;10.76;100.00;99653.84;5062108;28;20032;-62
2022/10/29 02:17:01;;;;;;;18.58;11.68;;;;;;;10.79;100.00;99654.69;5060671;28;20028;-61
2022/10/29 02:19:32;;;;;;;15.77;11.32;;;;;;;10.85;100.00;99675.19;5061477;28;20067;-62
2022/10/29 02:21:58;;;;;;;29.10;14.45;;;;;;;10.81;100.00;99670.94;5061833;28;20067;-61
2022/10/29 02:24:24;;;;;;;31.85;15.98;;;;;;;10.72;100.00;99667.53;5059735;28;20586;-62
2022/10/29 02:26:51;;;;;;;20.63;14.23;;;;;;;10.66;100.00;99647.03;5061294;28;20040;-61
2022/10/29 02:29:16;;;;;;;23.08;13.52;;;;;;;10.64;100.00;99659.00;5059807;28;20041;-61
2022/10/29 02:31:42;;;;;;;20.88;13.15;;;;;;;10.66;100.00;99647.88;5026895;28;20059;-61
2022/10/29 02:34:07;;;;;;;19.83;13.10;;;;;;;10.64;100.00;99643.63;5061009;28;20037;-62
2022/10/29 02:36:33;;;;;;;25.73;13.30;;;;;;;10.42;100.00;99622.31;5059526;28;20036;-61
2022/10/29 02:38:58;;;;;;;19.08;12.80;;;;;;;10.49;100.00;99639.38;5060019;28;20247;-62
2022/10/29 02:41:24;;;;;;;23.95;13.23;;;;;;;10.45;100.00;99633.41;5060469;28;20045;-62
2022/10/29 02:43:49;;;;;;;21.92;13.13;;;;;;;10.46;100.00;99634.28;5058889;28;20055;-62
2022/10/29 02:46:20;;;;;;;18.48;11.93;;;;;;;10.43;100.00;99621.47;5061083;28;20123;-64
2022/10/29 02:48:49;;;;;;;19.75;13.88;;;;;;;10.51;100.00;99643.66;5038210;28;20147;-61
2022/10/29 02:51:15;;;;;;;25.30;13.07;;;;;;;10.37;100.00;99619.75;5042962;28;20028;-62
2022/10/29 02:53:41;;;;;;;27.95;13.90;;;;;;;10.39;100.00;99617.22;5060529;28;20040;-61
2022/10/29 02:56:07;;;;;;;22.27;13.63;;;;;;;10.46;100.00;99627.44;5058108;28;20041;-62
2022/10/29 02:58:33;;;;;;;23.50;14.18;;;;;;;10.38;100.00;99611.22;5059969;28;20401;-62
2022/10/29 03:00:59;;;;;;;22.90;13.48;;;;;;;10.42;100.00;99617.19;5041681;28;20127;-62
2022/10/29 03:03:25;;;;;;;21.02;13.77;;;;;;;10.48;100.00;99612.06;5060262;28;20094;-61
2022/10/29 03:05:51;;;;;;;27.48;15.18;;;;;;;10.50;100.00;99629.13;5059698;28;20454;-61
2022/10/29 03:08:17;;;;;;;20.83;13.07;;;;;;;10.42;100.00;99630.00;5060303;28;20036;-61
2022/10/29 03:10:43;;;;;;;23.63;13.60;;;;;;;10.47;100.00;99625.72;5059146;28;20059;-60
2022/10/29 03:13:09;;;;;;;19.80;11.80;;;;;;;10.46;100.00;99626.59;5009054;28;20036;-61
2022/10/29 03:15:35;;;;;;;22.35;13.02;;;;;;;10.23;100.00;99595.88;5059372;28;20037;-62
2022/10/29 03:18:01;;;;;;;24.25;11.95;;;;;;;10.35;100.00;99607.81;5060221;28;20070;-63
2022/10/29 03:20:26;;;;;;;22.90;12.82;;;;;;;10.34;100.00;99613.78;5058484;28;20131;-61
2022/10/29 03:22:52;;;;;;;24.60;12.68;;;;;;;10.28;100.00;99613.78;5059903;28;20048;-62
2022/10/29 03:25:17;;;;;;;25.95;12.60;;;;;;;10.29;100.00;99618.06;5061339;28;20052;-62
2022/10/29 03:27:44;;;;;;;21.02;12.10;;;;;;;10.18;100.00;99596.75;5061255;28;20037;-61
2022/10/29 03:30:12;;;;;;;22.58;12.90;;;;;;;10.34;100.00;99614.66;5059813;28;20501;-62
2022/10/29 03:32:44;;;;;;;21.65;12.88;;;;;;;10.37;100.00;99606.94;5059496;28;20040;-62
2022/10/29 03:35:14;;;;;;;22.73;12.77;;;;;;;10.36;100.00;99609.50;5060259;28;20041;-63
2022/10/29 03:37:40;;;;;;;25.73;13.13;;;;;;;10.31;100.00;99596.69;5059709;28;20040;-61
2022/10/29 03:40:07;;;;;;;21.35;11.52;;;;;;;10.35;100.00;99597.56;5060690;28;20487;-62
2022/10/29 03:42:32;;;;;;;20.42;11.18;;;;;;;10.15;100.00;99584.78;5057211;28;20036;-61
2022/10/29 03:45:01;;;;;;;21.38;11.38;;;;;;;10.24;100.00;99602.72;5058357;28;20451;-62
2022/10/29 03:47:27;;;;;;;24.55;9.85;;;;;;;10.22;100.00;99608.69;5057758;28;20127;-61
2022/10/29 03:49:53;;;;;;;59.60;11.65;;;;;;;10.19;100.00;99608.69;5057015;28;20028;-62
2022/10/29 03:52:20;;;;;;;30.10;11.18;;;;;;;10.06;100.00;99607.81;5058199;28;20661;-62
2022/10/29 03:54:46;;;;;;;34.38;10.68;;;;;;;10.04;100.00;99605.28;5041775;28;20040;-60
2022/10/29 03:57:11;;;;;;;26.00;9.48;;;;;;;9.86;100.00;99591.63;5061761;28;20055;-61
2022/10/29 03:59:37;;;;;;;16.95;10.13;;;;;;;9.79;100.00;99595.06;5061217;28;20062;-62
2022/10/29 04:02:02;;;;;;;14.52;10.07;;;;;;;9.90;100.00;99617.22;5060339;28;20060;-61
2022/10/29 04:04:28;;;;;;;19.08;11.05;;;;;;;9.88;100.00;99615.53;5061709;28;20361;-62
2022/10/29 04:06:54;;;;;;;17.40;10.23;;;;;;;9.90;100.00;99617.22;5060444;28;20044;-62
2022/10/29 04:09:19;;;;;;;11.18;8.88;;;;;;;9.83;100.00;99612.13;5060390;28;20040;-62
2022/10/29 04:11:45;;;;;;;14.20;9.18;;;;;;;9.87;100.00;99606.16;5059157;28;20043;-62
2022/10/29 04:14:11;;;;;;;18.92;9.20;;;;;;;9.87;100.00;99614.69;5060947;28;20036;-61
2022/10/29 04:16:36;;;;;;;18.63;10.18;;;;;;;9.87;100.00;99612.13;5059216;28;20404;-61
2022/10/29 04:19:03;;;;;;;21.85;10.43;;;;;;;9.88;100.00;99618.97;5059425;28;20051;-61
2022/10/29 04:21:29;;;;;;;36.88;10.15;;;;;;;9.81;100.00;99614.66;5059782;28;20040;-62
2022/10/29 04:23:54;;;;;;;18.00;10.10;;;;;;;9.81;100.00;99612.09;5060022;28;20491;-61
2022/10/29 04:26:20;;;;;;;30.83;12.45;;;;;;;9.74;100.00;99614.69;5059277;28;20062;-59
2022/10/29 04:28:50;;;;;;;46.05;12.25;;;;;;;9.78;100.00;99630.03;5058673;28;20045;-60
2022/10/29 04:31:16;;;;;;;25.13;11.57;;;;;;;9.76;100.00;99638.59;5059609;28;20483;-61
2022/10/29 04:33:42;;;;;;;44.38;10.48;;;;;;;9.73;100.00;99646.25;5059345;28;20036;-60
2022/10/29 04:36:07;;;;;;;35.70;11.82;;;;;;;9.65;100.00;99623.22;5059583;28;20029;-61
2022/10/29 04:38:33;;;;;;;17.73;8.88;;;;;;;9.59;100.00;99643.66;5043268;28;20055;-60
2022/10/29 04:41:00;;;;;;;21.02;9.05;;;;;;;9.54;100.00;99630.03;5060036;28;20488;-61
2022/10/29 04:43:27;;;;;;;24.52;10.30;;;;;;;9.57;100.00;99643.69;5056370;28;20738;-62
2022/10/29 04:45:58;;;;;;;17.73;10.02;;;;;;;9.55;100.00;99642.81;5054554;28;20544;-61
2022/10/29 04:48:25;;;;;;;16.17;9.15;;;;;;;9.57;100.00;99653.06;5059827;28;20059;-61
2022/10/29 04:50:51;;;;;;;16.67;10.70;;;;;;;9.49;100.00;99647.09;5062658;28;20040;-62
2022/10/29 04:53:17;;;;;;;15.07;10.48;;;;;;;9.48;100.00;99640.25;5062324;28;20040;-62
2022/10/29 04:55:43;;;;;;;18.88;10.25;;;;;;;9.71;100.00;99663.34;5063178;28;20111;-61
2022/10/29 04:58:13;;;;;;;16.40;10.15;;;;;;;9.74;100.00;99656.50;5061534;28;20032;-62
2022/10/29 05:00:39;;;;;;;15.65;10.05;;;;;;;9.66;100.00;99627.50;5062511;28;20048;-62
2022/10/29 05:03:04;;;;;;;15.88;10.45;;;;;;;9.69;100.00;99637.72;5063246;28;20592;-62
2022/10/29 05:05:30;;;;;;;13.05;10.35;;;;;;;9.86;100.00;99659.06;5062982;28;20048;-61
2022/10/29 05:08:00;;;;;;;15.23;9.85;;;;;;;9.88;100.00;99656.53;5062606;28;20123;-61
2022/10/29 05:10:27;;;;;;;11.32;9.07;;;;;;;9.96;100.00;99653.09;5062842;28;20040;-61
2022/10/29 05:13:06;;;;;;;13.98;9.43;;;;;;;10.00;100.00;99654.81;5061193;28;20043;-62
2022/10/29 05:15:32;;;;;;;12.63;9.52;;;;;;;10.04;100.00;99655.66;5045681;28;20032;-62
2022/10/29 05:17:57;;;;;;;15.32;10.45;;;;;;;10.02;100.00;99658.22;5041949;28;20047;-62
2022/10/29 05:20:24;;;;;;;16.80;11.20;;;;;;;10.06;100.00;99653.94;5060864;28;20737;-62
2022/10/29 05:22:56;;;;;;;14.77;9.90;;;;;;;9.99;100.00;99642.84;5057818;28;20075;-61
2022/10/29 05:25:22;;;;;;;12.88;9.63;;;;;;;10.04;100.00;99651.41;5062463;28;20049;-62
2022/10/29 05:27:47;;;;;;;14.48;8.93;;;;;;;10.06;100.00;99636.84;5060931;28;20435;-61
2022/10/29 05:30:13;;;;;;;10.73;8.32;;;;;;;10.14;100.00;99657.38;5062022;28;20626;-61
2022/10/29 05:32:38;;;;;;;11.65;8.52;;;;;;;9.93;100.00;99653.09;5035576;28;20040;-61
2022/10/29 05:35:04;;;;;;;11.13;8.32;;;;;;;9.79;100.00;99634.31;5062037;28;20090;-61
2022/10/29 05:37:30;;;;;;;11.60;8.07;;;;;;;9.86;100.00;99638.59;5061352;28;20040;-61
2022/10/29 05:39:55;;;;;;;11.35;8.45;;;;;;;9.90;100.00;99657.34;5060901;28;20056;-61
2022/10/29 05:42:21;;;;;;;10.25;8.35;;;;;;;9.97;100.00;99659.91;5043096;28;20044;-61
2022/10/29 05:44:46;;;;;;;11.23;8.27;;;;;;;9.95;100.00;99658.22;5058492;28;20606;-61
2022/10/29 05:47:12;;;;;;;10.05;8.30;;;;;;;9.98;100.00;99653.09;5061756;28;20040;-61
2022/10/29 05:49:38;;;;;;;12.68;9.02;;;;;;;10.03;100.00;99653.94;5060693;28;20101;-61
2022/10/29 05:52:03;;;;;;;10.43;8.02;;;;;;;9.82;100.00;99618.94;5061460;28;20033;-62
2022/10/29 05:54:29;;;;;;;8.82;7.35;;;;;;;10.01;100.00;99659.06;5060882;28;20575;-61
2022/10/29 05:56:57;;;;;;;9.77;7.60;;;;;;;9.95;100.00;99638.59;5060491;28;20047;-61
2022/10/29 05:59:23;;;;;;;7.65;5.93;;;;;;;10.17;100.00;99666.78;5060288;28;20040;-61
2022/10/29 06:01:48;;;;;;;8.30;6.78;;;;;;;10.13;100.00;99665.91;5057502;28;20455;-61
2022/10/29 06:04:14;;;;;;;9.68;7.15;;;;;;;10.08;100.00;99657.38;5057387;28;20041;-61
2022/10/29 06:06:40;;;;;;;7.70;6.85;;;;;;;9.95;100.00;99628.34;5060702;28;20119;-61
2022/10/29 06:09:06;;;;;;;8.05;6.72;;;;;;;10.05;100.00;99658.22;5060027;28;20431;-63
2022/10/29 06:11:31;;;;;;;7.63;6.13;;;;;;;10.01;100.00;99645.44;5061268;28;20045;-63
2022/10/29 06:13:57;;;;;;;9.95;6.97;;;;;;;10.04;100.00;99643.72;5060886;28;20127;-62
2022/10/29 06:16:22;;;;;;;9.48;7.03;;;;;;;9.94;100.00;99629.19;5058992;28;20059;-63
2022/10/29 06:18:48;;;;;;;6.65;5.63;;;;;;;9.84;100.00;99601.88;5060806;28;20131;-64
2022/10/29 06:21:14;;;;;;;8.48;6.32;;;;;;;9.98;100.00;99646.25;5061638;28;20091;-64
2022/10/29 06:23:39;;;;;;;8.38;6.97;;;;;;;10.07;100.00;99637.72;5059871;28;20032;-63
2022/10/29 06:26:05;;;;;;;9.27;6.28;;;;;;;10.02;100.00;99636.84;5061079;28;20052;-65
2022/10/29 06:28:31;;;;;;;8.30;6.82;;;;;;;10.03;100.00;99621.50;5059170;28;20052;-64
2022/10/29 06:30:56;;;;;;;10.63;7.20;;;;;;;10.08;100.00;99645.41;5058485;28;20059;-61
2022/10/29 06:33:22;;;;;;;15.07;9.65;;;;;;;10.04;100.00;99647.97;5057761;28;20036;-64
2022/10/29 06:35:48;;;;;;;11.43;7.03;;;;;;;10.06;100.00;99643.69;5059466;28;20036;-63
2022/10/29 06:38:14;;;;;;;20.65;7.65;;;;;;;10.06;100.00;99641.13;5058854;28;20467;-65
2022/10/29 06:40:41;;;;;;;16.45;7.40;;;;;;;10.04;100.00;99643.72;5057142;28;20052;-61
2022/10/29 06:43:10;;;;;;;15.52;7.32;;;;;;;10.01;100.00;99637.75;5058251;28;20099;-62
2022/10/29 06:45:35;;;;;;;14.73;8.75;;;;;;;10.07;100.00;99653.94;5057908;28;20063;-63
2022/10/29 06:48:03;;;;;;;32.97;8.80;;;;;;;10.03;100.00;99657.38;5040421;28;20116;-65
2022/10/29 06:50:29;;;;;;;25.15;9.60;;;;;;;9.99;100.00;99636.88;5058324;28;20036;-63
2022/10/29 06:52:57;;;;;;;26.60;11.30;;;;;;;10.09;100.00;99662.50;5059182;28;20114;-63
2022/10/29 06:55:23;;;;;;;21.38;10.38;;;;;;;10.17;100.00;99666.78;5056971;28;20557;-64
2022/10/29 06:57:55;;;;;;;17.65;11.25;;;;;;;10.30;100.00;99671.03;5058764;28;20048;-62
2022/10/29 07:00:21;;;;;;;34.78;12.50;;;;;;;10.18;100.00;99669.34;5054336;28;20037;-65
2022/10/29 07:02:46;;;;;;;27.13;13.23;;;;;;;10.26;100.00;99666.78;5055901;28;20637;-65
2022/10/29 07:05:12;;;;;;;29.95;12.43;;;;;;;10.20;100.00;99672.75;5059931;28;20560;-65
2022/10/29 07:07:37;;;;;;;15.35;8.40;;;;;;;10.22;100.00;99663.38;5058173;28;20053;-65
2022/10/29 07:10:03;;;;;;;17.98;8.50;;;;;;;10.15;100.00;99665.88;5034167;28;20355;-65
2022/10/29 07:12:29;;;;;;;18.23;8.60;;;;;;;10.25;100.00;99652.25;5057025;28;20074;-66
2022/10/29 07:14:54;;;;;;;20.27;8.60;;;;;;;10.42;100.00;99653.94;5058507;28;20127;-67
2022/10/29 07:17:20;;;;;;;22.58;10.18;;;;;;;10.38;100.00;99647.13;5059039;28;20460;-65
2022/10/29 07:19:46;;;;;;;17.92;10.38;;;;;;;10.53;100.00;99657.31;5057453;28;20162;-65
2022/10/29 07:22:12;;;;;;;16.63;9.05;;;;;;;10.31;100.00;99647.97;5044432;28;20281;-65
2022/10/29 07:24:37;;;;;;;14.95;9.65;;;;;;;10.57;100.00;99677.81;5056381;28;20071;-66
2022/10/29 07:27:05;;;;;;;18.15;9.18;;;;;;;10.49;100.00;99672.72;5042566;28;20163;-65
2022/10/29 07:29:31;;;;;;;14.75;10.05;;;;;;;10.59;100.00;99679.53;5058454;28;20367;-63
2022/10/29 07:31:56;;;;;;;16.05;9.77;;;;;;;10.74;100.00;99682.06;5034595;28;20391;-63
2022/10/29 07:34:22;;;;;;;22.55;9.85;;;;;;;10.61;100.00;99654.72;5039868;28;20036;-63
2022/10/29 07:36:48;;;;;;;11.30;7.90;;;;;;;10.86;100.00;99673.50;5042177;28;20064;-63
2022/10/29 07:39:14;;;;;;;10.45;7.60;;;;;;;10.92;100.00;99671.75;5036409;28;20111;-62
2022/10/29 07:41:39;;;;;;;10.18;7.20;;;;;;;11.02;100.00;99676.84;5061160;28;20651;-63
2022/10/29 07:44:05;;;;;;;10.23;7.47;;;;;;;11.03;100.00;99676.00;5056648;28;20541;-64
2022/10/29 07:46:31;;;;;;;9.02;7.35;;;;;;;11.11;100.00;99676.81;5041525;28;21661;-63
2022/10/29 07:48:56;;;;;;;7.68;6.78;;;;;;;11.21;100.00;99655.34;5045791;28;21052;-63
2022/10/29 07:51:22;;;;;;;8.75;6.93;;;;;;;11.51;100.00;99669.72;5055335;28;20044;-64
2022/10/29 07:53:48;;;;;;;9.15;7.13;;;;;;;11.45;100.00;99642.41;5051750;28;20451;-64
2022/10/29 07:56:14;;;;;;;9.65;7.43;;;;;;;11.57;100.00;99662.84;5052927;28;20507;-63
2022/10/29 07:58:41;;;;;;;8.25;6.63;;;;;;;11.73;100.00;99661.91;5053881;28;20170;-64
2022/10/29 08:01:06;;;;;;;6.68;5.95;;;;;;;11.62;100.00;99661.13;5039174;28;20063;-64
2022/10/29 08:03:32;;;;;;;8.20;6.55;;;;;;;11.73;100.00;99659.34;5053041;28;20048;-63
2022/10/29 08:05:58;;;;;;;9.90;7.00;;;;;;;11.70;100.00;99655.91;5052535;28;20044;-64
2022/10/29 08:08:24;;;;;;;8.38;6.80;;;;;;;11.82;100.00;99650.72;5037468;28;20059;-68
2022/10/29 08:10:50;;;;;;;6.85;6.20;;;;;;;11.87;100.00;99642.13;5057171;28;20033;-66
2022/10/29 08:13:15;;;;;;;7.70;5.78;;;;;;;12.12;100.00;99629.06;5043795;28;20747;-65
2022/10/29 08:15:45;;;;;;;8.85;7.03;;;;;;;12.39;100.00;99648.50;5046509;28;20444;-64
2022/10/29 08:18:15;;;;;;;8.45;6.25;;;;;;;12.13;100.00;99647.03;5051243;28;20059;-65
2022/10/29 08:20:40;;;;;;;6.70;6.00;;;;;;;12.05;100.00;99624.84;5055240;28;20448;-64
2022/10/29 08:23:06;;;;;;;5.88;5.13;;;;;;;12.08;100.00;99630.81;5038364;28;20050;-64
2022/10/29 08:25:32;;;;;;;6.13;5.53;;;;;;;12.39;100.00;99630.50;5050411;28;20635;-64
2022/10/29 08:27:59;;;;;;;8.32;6.07;;;;;;;12.55;100.00;99655.19;5041528;28;20051;-63
2022/10/29 08:30:26;;;;;;;7.10;5.85;;;;;;;12.56;100.00;99639.72;5060960;28;20135;-63
2022/10/29 08:32:51;;;;;;;7.45;6.43;;;;;;;12.29;100.00;99635.75;5061248;28;20157;-64
2022/10/29 08:35:17;;;;;;;7.82;6.20;;;;;;;12.26;100.00;99640.06;5062538;28;20558;-64
2022/10/29 08:37:43;;;;;;;6.25;5.65;;;;;;;12.48;100.00;99640.69;5060352;28;20099;-64
2022/10/29 08:40:23;;;;;;;5.53;5.00;;;;;;;12.49;100.00;99626.97;5062616;28;20041;-63
2022/10/29 08:43:20;;;;;;;8.80;6.10;;;;;;;12.44;100.00;99632.16;5062881;28;20045;-64
2022/10/29 08:45:51;;;;;;;6.90;6.20;;;;;;;12.40;100.00;99633.03;5043304;28;20143;-64
2022/10/29 08:48:32;;;;;;;7.68;6.15;;;;;;;12.64;100.00;99634.53;5060600;28;20044;-64
2022/10/29 08:51:21;;;;;;;7.35;6.10;;;;;;;12.55;100.00;99643.19;5060711;28;20047;-64
2022/10/29 08:53:49;;;;;;;8.02;6.57;;;;;;;12.24;100.00;99627.22;5062332;28;20094;-65
2022/10/29 08:56:28;;;;;;;9.18;7.15;;;;;;;12.32;100.00;99647.72;5062664;28;20044;-64
2022/10/29 08:59:15;;;;;;;7.00;5.60;;;;;;;12.16;100.00;99631.59;5060048;28;20033;-64
2022/10/29 09:01:41;;;;;;;7.78;6.57;;;;;;;12.24;100.00;99636.66;5061719;28;20048;-65
2022/10/29 09:04:25;;;;;;;9.70;7.45;;;;;;;12.24;100.00;99622.06;5042917;28;20102;-64
2022/10/29 09:07:19;;;;;;;7.70;6.90;;;;;;;12.46;100.00;99640.72;5061465;28;20044;-64
2022/10/29 09:09:50;;;;;;;13.52;9.93;;;;;;;12.47;100.00;99639.00;5062505;28;20117;-61
2022/10/29 09:13:03;;;;;;;11.18;8.85;;;;;;;12.56;100.00;99637.16;5061155;28;20036;-60
2022/10/29 09:15:41;;;;;;;7.18;6.47;;;;;;;12.79;100.00;99640.34;5057675;28;20541;-61
2022/10/29 09:18:17;;;;;;;7.93;6.97;;;;;;;12.83;100.00;99631.72;5058411;28;20052;-61
2022/10/29 09:20:53;;;;;;;8.95;6.85;;;;;;;12.79;100.00;99636.91;5057314;28;20064;-62
2022/10/29 09:23:29;;;;;;;9.05;7.47;;;;;;;12.78;100.00;99633.47;5059860;28;20507;-62
2022/10/29 09:26:20;;;;;;;8.13;6.78;;;;;;;12.69;100.00;99633.59;5044460;28;20755;-62
2022/10/29 09:28:49;;;;;;;8.38;7.20;;;;;;;12.74;100.00;99630.97;5059698;28;20044;-61
2022/10/29 09:31:33;;;;;;;8.20;7.28;;;;;;;12.74;100.00;99631.81;5056939;28;20027;-61
2022/10/29 09:34:10;;;;;;;13.50;7.40;;;;;;;12.88;100.00;99617.94;5040824;28;20036;-61
2022/10/29 09:36:35;;;;;;;8.05;6.40;;;;;;;12.99;100.00;99626.34;5060226;28;20085;-61
2022/10/29 09:39:09;;;;;;;7.65;6.95;;;;;;;13.01;100.00;99634.94;5061082;28;20048;-61
2022/10/29 09:41:37;;;;;;;15.00;6.70;;;;;;;12.92;100.00;99617.88;5061843;28;20167;-61
2022/10/29 09:44:22;;;;;;;7.15;6.45;;;;;;;13.07;100.00;99625.38;5043043;28;20489;-61
2022/10/29 09:47:19;;;;;;;6.65;5.97;;;;;;;13.19;100.00;99633.00;5061610;28;20591;-61
2022/10/29 09:50:15;;;;;;;6.88;6.13;;;;;;;13.21;100.00;99640.69;5061471;28;20040;-62
2022/10/29 09:52:44;;;;;;;7.43;6.15;;;;;;;13.40;100.00;99642.16;5060598;28;20543;-61
2022/10/29 09:55:19;;;;;;;8.65;7.47;;;;;;;13.21;100.00;99623.53;5061207;28;20056;-61
2022/10/29 09:57:45;;;;;;;7.78;6.97;;;;;;;13.24;100.00;99635.50;5061537;28;20043;-61
2022/10/29 10:00:27;;;;;;;9.63;7.57;;;;;;;13.13;100.00;99625.34;5060789;28;20107;-61
2022/10/29 10:03:08;;;;;;;7.65;6.90;;;;;;;13.19;100.00;99642.47;5041107;28;20593;-61
2022/10/29 10:05:54;;;;;;;8.43;6.85;;;;;;;12.99;100.00;99626.34;5057605;28;20159;-61
2022/10/29 10:08:20;;;;;;;8.65;7.75;;;;;;;13.06;100.00;99625.44;5060685;28;20186;-61
2022/10/29 10:10:51;;;;;;;8.57;7.47;;;;;;;13.05;100.00;99642.59;5059495;28;20163;-63
2022/10/29 10:13:18;;;;;;;8.77;6.97;;;;;;;13.08;100.00;99632.25;5060061;28;20126;-62
2022/10/29 10:15:56;;;;;;;8.05;7.07;;;;;;;13.15;100.00;99635.66;5060948;28;20403;-61
2022/10/29 10:18:40;;;;;;;9.77;7.18;;;;;;;13.16;100.00;99632.16;5041422;28;20065;-61
2022/10/29 10:21:07;;;;;;;8.43;7.57;;;;;;;13.12;100.00;99630.50;5062218;28;20071;-63
2022/10/29 10:23:48;;;;;;;8.95;7.18;;;;;;;13.21;100.00;99625.25;5060057;28;20063;-62
2022/10/29 10:26:31;;;;;;;9.35;7.40;;;;;;;13.27;100.00;99622.59;5057995;28;20489;-61
2022/10/29 10:29:23;;;;;;;7.72;6.85;;;;;;;13.24;100.00;99615.75;5056521;28;20072;-62
2022/10/29 10:31:55;;;;;;;10.15;7.25;;;;;;;13.23;100.00;99619.22;5059678;28;20048;-61
2022/10/29 10:34:22;;;;;;;7.80;6.47;;;;;;;13.31;100.00;99613.09;5058953;28;20503;-67
2022/10/29 10:37:01;;;;;;;8.77;7.18;;;;;;;13.34;100.00;99587.28;5059929;28;20111;-63
2022/10/29 10:39:33;;;;;;;10.77;7.65;;;;;;;13.39;100.00;99588.94;5061420;28;20036;-61
2022/10/29 10:42:03;;;;;;;10.27;8.35;;;;;;;13.64;100.00;99597.97;5060702;28;20048;-61
2022/10/29 10:44:29;;;;;;;11.18;7.63;;;;;;;13.72;100.00;99597.84;5058749;28;20776;-62
2022/10/29 10:46:59;;;;;;;9.32;7.47;;;;;;;13.65;100.00;99591.97;5041778;28;20171;-62
2022/10/29 10:49:33;;;;;;;8.48;7.60;;;;;;;13.65;100.00;99596.25;5055895;28;20121;-61
2022/10/29 10:52:05;;;;;;;8.00;7.07;;;;;;;13.75;100.00;99613.25;5057424;28;20044;-60
2022/10/29 10:54:40;;;;;;;8.40;7.43;;;;;;;13.86;100.00;99610.53;5058088;28;20036;-67
2022/10/29 10:57:09;;;;;;;9.13;7.68;;;;;;;13.55;100.00;99608.44;5056727;28;20314;-62
2022/10/29 10:59:50;;;;;;;11.73;9.30;;;;;;;13.13;100.00;99588.44;5037749;28;20584;-65
2022/10/29 11:02:32;;;;;;;9.70;8.25;;;;;;;13.36;100.00;99588.13;5054117;28;20044;-65
2022/10/29 11:05:11;;;;;;;10.65;8.70;;;;;;;13.66;100.00;99597.97;5037279;28;20106;-65
2022/10/29 11:07:41;;;;;;;11.45;8.20;;;;;;;13.52;100.00;99603.34;5055705;28;20045;-65
2022/10/29 11:10:11;;;;;;;9.93;8.85;;;;;;;13.46;100.00;99598.25;5055658;28;20063;-67
2022/10/29 11:12:46;;;;;;;12.30;8.27;;;;;;;13.36;100.00;99601.00;5058142;28;20032;-69
2022/10/29 11:15:16;;;;;;;11.23;8.70;;;;;;;13.43;100.00;99598.31;5059601;28;20147;-74
2022/10/29 11:17:58;;;;;;;10.45;8.75;;;;;;;13.48;100.00;99578.50;5042442;28;20043;-72
2022/10/29 11:20:32;;;;;;;18.23;13.60;;;;;;;13.65;100.00;99584.22;5058990;28;20134;-72
2022/10/29 11:23:10;;;;;;;12.40;9.27;;;;;;;13.71;100.00;99578.97;5056656;28;20032;-74
2022/10/29 11:25:43;;;;;;;11.07;8.40;;;;;;;13.93;100.00;99591.50;5060270;28;20054;-71
2022/10/29 11:28:22;;;;;;;11.77;8.52;;;;;;;14.03;100.00;99587.88;5061169;28;20419;-72
2022/10/29 11:30:58;;;;;;;12.15;9.38;;;;;;;14.07;100.00;99599.84;5059954;28;20040;-72